Time;durP1;ratioP1;P1;durP2;ratioP2;P2;SDS_P1;SDS_P2;PMS_P1;PMS_P2;Temp;Humidity;BMP_temperature;BMP_pressure;BME280_temperature;BME280_humidity;BME280_pressure;Samples;Min_cycle;Max_cycle;Signal;HPM_P1;HPM_P2
2022/10/03 00:02:03;;;;;;;15.40;12.07;;;;;;;14.18;100.00;98948.50;4194796;28;20625;-83
2022/10/03 00:04:18;;;;;;;16.30;11.93;;;;;;;14.18;100.00;98953.72;4191979;28;20633;-83
2022/10/03 00:06:32;;;;;;;13.33;11.07;;;;;;;14.18;100.00;98953.72;4193659;28;20652;-83
2022/10/03 00:09:03;;;;;;;16.50;11.60;;;;;;;14.18;100.00;98951.94;4196510;28;20657;-83
2022/10/03 00:11:11;;;;;;;13.03;11.60;;;;;;;14.18;100.00;98972.09;4183665;28;21217;-84
2022/10/03 00:13:21;;;;;;;15.97;12.60;;;;;;;14.18;100.00;98972.94;4196418;28;20705;-83
2022/10/03 00:15:27;;;;;;;16.50;12.60;;;;;;;14.17;100.00;98981.75;4190847;28;20727;-84
2022/10/03 00:17:39;;;;;;;15.57;13.50;;;;;;;14.17;100.00;98976.50;4172820;28;21052;-83
2022/10/03 00:19:50;;;;;;;16.17;12.13;;;;;;;14.17;100.00;98986.97;4194491;28;20633;-83
2022/10/03 00:22:03;;;;;;;14.33;11.60;;;;;;;14.15;100.00;98970.53;4193307;28;20643;-83
2022/10/03 00:24:14;;;;;;;15.53;12.17;;;;;;;14.16;100.00;98977.47;4188417;28;20658;-83
2022/10/03 00:26:27;;;;;;;13.53;11.77;;;;;;;14.17;100.00;98973.03;4175171;28;21230;-83
2022/10/03 00:28:51;;;;;;;12.20;10.70;;;;;;;14.16;100.00;98979.22;4192657;28;20634;-83
2022/10/03 00:31:06;;;;;;;15.53;11.47;;;;;;;14.16;100.00;98987.09;4173476;28;20621;-83
2022/10/03 00:33:18;;;;;;;12.50;10.40;;;;;;;14.15;100.00;98994.13;4192382;28;20624;-83
2022/10/03 00:35:33;;;;;;;19.23;11.37;;;;;;;14.15;100.00;98986.25;4191414;28;20620;-83
2022/10/03 00:37:40;;;;;;;15.07;12.00;;;;;;;14.15;100.00;98985.44;4192684;28;20635;-83
2022/10/03 00:39:54;;;;;;;13.57;11.87;;;;;;;14.15;100.00;98988.88;4187908;28;20632;-83
2022/10/03 00:42:30;;;;;;;14.30;11.13;;;;;;;14.14;100.00;98995.06;4190407;28;20883;-83
2022/10/03 00:45:03;;;;;;;18.43;13.30;;;;;;;14.15;100.00;99003.78;4150291;28;20640;-83
2022/10/03 00:47:39;;;;;;;15.13;12.30;;;;;;;14.15;100.00;99009.03;4192097;28;20635;-83
2022/10/03 00:50:32;;;;;;;16.57;12.57;;;;;;;14.13;100.00;99009.16;4173774;28;20711;-83
2022/10/03 00:52:51;;;;;;;17.93;12.80;;;;;;;14.13;100.00;99014.41;4159691;28;20633;-83
2022/10/03 00:55:03;;;;;;;14.53;12.17;;;;;;;14.13;100.00;99012.69;4191415;28;20644;-83
2022/10/03 00:57:19;;;;;;;15.40;12.60;;;;;;;14.11;100.00;99015.44;4193145;28;20699;-83
2022/10/03 00:59:36;;;;;;;16.77;12.90;;;;;;;14.10;100.00;99005.03;4193424;28;20669;-83
2022/10/03 01:01:45;;;;;;;14.57;12.70;;;;;;;14.08;100.00;99005.13;4172864;28;20629;-83
2022/10/03 01:03:55;;;;;;;16.00;12.90;;;;;;;14.07;100.00;99006.06;4191501;28;20637;-83
2022/10/03 01:06:09;;;;;;;15.00;12.97;;;;;;;14.07;100.00;99011.31;4191794;28;20802;-82
2022/10/03 01:08:45;;;;;;;16.00;13.57;;;;;;;14.07;100.00;99007.88;4191167;28;20667;-83
2022/10/03 01:10:53;;;;;;;15.77;12.60;;;;;;;14.07;100.00;99008.69;4188311;28;20656;-82
2022/10/03 01:13:07;;;;;;;17.17;13.03;;;;;;;14.06;100.00;99001.78;4188129;28;20683;-83
2022/10/03 01:15:19;;;;;;;17.03;13.17;;;;;;;14.07;100.00;99000.81;4170826;28;20637;-83
2022/10/03 01:17:32;;;;;;;16.20;13.03;;;;;;;14.08;100.00;99007.75;4174353;28;21247;-84
2022/10/03 01:19:58;;;;;;;15.30;12.20;;;;;;;14.09;100.00;99014.69;4188683;28;20978;-83
2022/10/03 01:22:15;;;;;;;15.13;12.00;;;;;;;14.09;100.00;99019.09;4191142;28;20611;-83
2022/10/03 01:24:47;;;;;;;16.33;13.10;;;;;;;14.09;100.00;99005.97;4189311;28;20687;-82
2022/10/03 01:26:55;;;;;;;16.20;12.73;;;;;;;14.09;100.00;99004.22;4175892;28;20697;-83
2022/10/03 01:31:26;;;;;;;16.43;13.37;;;;;;;14.08;100.00;99005.13;4190230;28;20664;-83
2022/10/03 01:33:32;;;;;;;15.23;13.20;;;;;;;14.06;100.00;99009.66;4172469;28;20664;-82
2022/10/03 01:35:41;;;;;;;18.20;14.37;;;;;;;14.03;100.00;98999.34;4192656;28;20615;-83
2022/10/03 01:37:51;;;;;;;16.77;13.37;;;;;;;14.05;100.00;99001.91;4189493;28;21174;-83
2022/10/03 01:39:57;;;;;;;15.30;12.53;;;;;;;14.05;100.00;99001.91;4178719;28;20649;-83
2022/10/03 01:42:06;;;;;;;15.50;12.60;;;;;;;14.03;100.00;99004.59;4192078;28;20615;-83
2022/10/03 01:44:15;;;;;;;16.20;13.00;;;;;;;14.03;100.00;98994.09;4192923;28;20612;-83
2022/10/03 01:46:21;;;;;;;19.07;14.63;;;;;;;14.00;100.00;99002.19;4174217;28;20687;-83
2022/10/03 01:48:31;;;;;;;18.20;14.10;;;;;;;13.98;100.00;99009.31;4189874;28;20629;-83
2022/10/03 01:50:38;;;;;;;20.40;14.53;;;;;;;13.98;100.00;99014.56;4189158;28;20660;-83
2022/10/03 01:52:48;;;;;;;20.30;14.70;;;;;;;14.01;100.00;99016.13;4189808;28;21067;-83
2022/10/03 01:54:56;;;;;;;20.00;14.73;;;;;;;14.00;100.00;99017.91;4192453;28;20616;-84
2022/10/03 01:57:02;;;;;;;17.03;13.43;;;;;;;14.01;100.00;99027.47;4193154;28;20613;-83
2022/10/03 01:59:10;;;;;;;20.63;14.30;;;;;;;14.01;100.00;99019.59;4186899;28;21238;-83
2022/10/03 02:01:21;;;;;;;20.07;14.60;;;;;;;14.02;100.00;99030.91;4189436;28;20647;-83
2022/10/03 02:03:28;;;;;;;19.10;15.17;;;;;;;14.02;100.00;99029.13;4197537;28;20658;-83
2022/10/03 02:05:38;;;;;;;18.80;14.60;;;;;;;14.04;100.00;99031.66;4190226;28;20628;-83
2022/10/03 02:07:47;;;;;;;18.70;15.27;;;;;;;14.03;100.00;99036.06;4177919;28;20651;-83
2022/10/03 02:09:58;;;;;;;18.83;14.23;;;;;;;14.04;100.00;99036.91;4189287;28;20631;-83
2022/10/03 02:12:08;;;;;;;20.33;14.77;;;;;;;14.04;100.00;99037.72;4189768;28;20767;-82
2022/10/03 02:14:21;;;;;;;18.23;14.63;;;;;;;14.02;100.00;99039.63;4193386;28;20639;-83
2022/10/03 02:16:33;;;;;;;18.83;15.20;;;;;;;14.02;100.00;99039.63;4191150;28;20653;-83
2022/10/03 02:18:43;;;;;;;20.60;14.87;;;;;;;14.02;100.00;99044.03;4195216;28;20631;-83
2022/10/03 02:20:49;;;;;;;20.00;14.97;;;;;;;14.01;100.00;99037.97;4193216;28;20638;-83
2022/10/03 02:22:54;;;;;;;19.20;14.43;;;;;;;14.00;100.00;99036.28;4189891;28;20723;-83
2022/10/03 02:25:09;;;;;;;20.80;14.70;;;;;;;14.02;100.00;99047.50;4191925;28;20612;-82
2022/10/03 02:27:41;;;;;;;18.17;14.27;;;;;;;14.03;100.00;99040.47;4192386;28;20647;-83
2022/10/03 02:29:55;;;;;;;18.87;15.13;;;;;;;14.02;100.00;99049.28;4206551;28;20616;-83
2022/10/03 02:32:37;;;;;;;18.40;14.50;;;;;;;14.00;100.00;99038.91;4191018;28;20665;-83
2022/10/03 02:35:13;;;;;;;20.47;13.60;;;;;;;13.97;100.00;99052.22;4179741;28;20674;-83
2022/10/03 02:37:32;;;;;;;20.37;14.47;;;;;;;13.96;100.00;99050.53;4192572;28;20723;-83
2022/10/03 02:40:20;;;;;;;18.20;13.60;;;;;;;13.96;100.00;99047.91;4187760;28;20629;-83
2022/10/03 02:42:51;;;;;;;20.93;15.37;;;;;;;13.90;100.00;99050.09;4193941;28;20628;-83
2022/10/03 02:45:14;;;;;;;18.57;13.40;;;;;;;13.88;100.00;99050.19;4187046;28;20642;-83
2022/10/03 02:47:47;;;;;;;19.40;14.50;;;;;;;13.89;100.00;99049.28;4152711;28;20848;-83
2022/10/03 02:50:22;;;;;;;19.93;14.03;;;;;;;13.92;100.00;99049.06;4185814;28;20611;-83
2022/10/03 02:53:03;;;;;;;21.40;14.63;;;;;;;13.91;100.00;99052.63;4198081;28;20628;-83
2022/10/03 02:55:27;;;;;;;20.17;15.00;;;;;;;13.89;100.00;99053.66;4197548;28;20623;-84
2022/10/03 02:57:56;;;;;;;24.20;15.23;;;;;;;13.84;100.00;99056.56;4196453;28;21095;-83
2022/10/03 03:00:08;;;;;;;22.13;15.47;;;;;;;13.81;100.00;99054.16;4192663;28;20639;-83
2022/10/03 03:02:32;;;;;;;24.23;16.40;;;;;;;13.80;100.00;99049.00;4198743;28;21202;-83
2022/10/03 03:04:52;;;;;;;21.93;16.83;;;;;;;13.79;100.00;99053.44;4198179;28;20636;-83
2022/10/03 03:07:11;;;;;;;24.67;16.93;;;;;;;13.78;100.00;99054.34;4196257;28;20652;-83
2022/10/03 03:09:53;;;;;;;24.80;16.47;;;;;;;13.80;100.00;99049.88;4198306;28;20624;-83
2022/10/03 03:12:29;;;;;;;21.73;15.47;;;;;;;13.82;100.00;99050.59;4175887;28;20726;-83
2022/10/03 03:15:07;;;;;;;21.17;15.03;;;;;;;13.85;100.00;99050.41;4194782;28;20627;-83
2022/10/03 03:17:22;;;;;;;22.30;15.27;;;;;;;13.85;100.00;99050.41;4178660;28;20632;-83
2022/10/03 03:19:46;;;;;;;24.67;17.30;;;;;;;13.86;100.00;99054.72;4198156;28;20670;-83
2022/10/03 03:21:53;;;;;;;20.37;14.70;;;;;;;13.87;100.00;99050.31;4193057;28;20649;-84
2022/10/03 03:24:35;;;;;;;23.03;15.67;;;;;;;13.89;100.00;99049.28;4195450;28;20685;-83
2022/10/03 03:27:09;;;;;;;20.83;15.33;;;;;;;13.89;100.00;99038.78;4130389;28;20675;-83
2022/10/03 03:29:20;;;;;;;22.63;15.83;;;;;;;13.89;100.00;99049.28;4126500;28;20769;-83
2022/10/03 03:31:30;;;;;;;23.47;15.53;;;;;;;13.91;100.00;99046.53;4166488;28;20714;-82
2022/10/03 03:33:40;;;;;;;23.00;16.33;;;;;;;13.91;100.00;99042.13;4196493;28;20619;-83
2022/10/03 03:35:56;;;;;;;20.60;15.50;;;;;;;13.93;100.00;99042.03;4195843;28;21064;-83
2022/10/03 03:38:06;;;;;;;27.43;16.27;;;;;;;13.95;100.00;99040.13;4198703;28;20623;-83
2022/10/03 03:40:28;;;;;;;25.23;16.50;;;;;;;13.96;100.00;99044.44;4210750;28;20694;-83
2022/10/03 03:42:55;;;;;;;22.07;17.10;;;;;;;13.96;100.00;99049.69;4196432;28;20625;-81
2022/10/03 03:45:08;;;;;;;26.87;17.77;;;;;;;13.96;100.00;99050.53;4199299;28;20754;-82
2022/10/03 03:47:21;;;;;;;25.10;17.60;;;;;;;13.98;100.00;99047.81;4181894;28;20710;-83
2022/10/03 03:49:31;;;;;;;22.57;16.83;;;;;;;13.97;100.00;99052.22;4196401;28;20647;-83
2022/10/03 03:51:42;;;;;;;26.70;16.47;;;;;;;13.99;100.00;99052.94;4192724;28;20734;-84
2022/10/03 03:54:18;;;;;;;22.47;17.47;;;;;;;13.98;100.00;99059.16;4191655;28;20659;-83
2022/10/03 03:56:34;;;;;;;21.50;15.33;;;;;;;13.98;100.00;99059.16;4197099;28;21022;-82
2022/10/03 03:58:40;;;;;;;23.30;16.33;;;;;;;13.98;100.00;99060.91;4214056;28;20662;-84
2022/10/03 04:00:59;;;;;;;25.90;17.30;;;;;;;13.99;100.00;99066.06;4194797;28;20660;-83
2022/10/03 04:03:21;;;;;;;26.47;18.00;;;;;;;14.00;100.00;99061.69;4176173;28;20644;-82
2022/10/03 04:05:35;;;;;;;24.17;15.77;;;;;;;14.00;100.00;99062.50;4187186;28;20642;-83
2022/10/03 04:07:53;;;;;;;23.23;17.10;;;;;;;14.03;100.00;99067.53;4171744;28;20737;-83
2022/10/03 04:10:21;;;;;;;25.50;16.27;;;;;;;14.03;100.00;99067.53;4170520;28;20674;-83
2022/10/03 04:12:37;;;;;;;23.37;15.60;;;;;;;14.06;100.00;99070.00;4178040;28;21101;-83
2022/10/03 04:14:59;;;;;;;22.07;16.47;;;;;;;14.07;100.00;99074.28;4193639;28;20705;-83
2022/10/03 04:19:48;;;;;;;20.13;15.13;;;;;;;14.08;100.00;99075.97;4211211;28;20637;-83
2022/10/03 04:21:59;;;;;;;24.50;15.97;;;;;;;14.08;100.00;99075.16;4190026;28;20643;-83
2022/10/03 04:24:18;;;;;;;23.33;15.97;;;;;;;14.07;100.00;99071.66;4192296;28;20631;-83
2022/10/03 04:26:30;;;;;;;22.93;16.43;;;;;;;14.06;100.00;99075.25;4203182;28;20623;-83
2022/10/03 04:28:45;;;;;;;22.83;15.57;;;;;;;14.04;100.00;99074.44;4194760;28;21445;-82
2022/10/03 04:30:57;;;;;;;20.40;16.10;;;;;;;14.06;100.00;99075.25;4191181;28;20719;-83
2022/10/03 04:33:09;;;;;;;20.63;15.53;;;;;;;14.04;100.00;99074.44;4195821;28;20735;-83
2022/10/03 04:35:25;;;;;;;23.27;15.60;;;;;;;14.04;100.00;99079.69;4195318;28;20735;-82
2022/10/03 04:37:32;;;;;;;22.23;15.97;;;;;;;14.04;100.00;99074.44;4173662;28;20632;-82
2022/10/03 04:39:37;;;;;;;21.63;15.97;;;;;;;14.05;100.00;99073.56;4192258;28;20691;-82
2022/10/03 04:41:46;;;;;;;22.50;15.73;;;;;;;14.05;100.00;99070.94;4208423;28;20635;-83
2022/10/03 04:43:59;;;;;;;23.10;15.90;;;;;;;14.04;100.00;99068.38;4193173;28;20675;-83
2022/10/03 04:46:15;;;;;;;18.80;14.50;;;;;;;14.01;100.00;99064.19;4209537;28;20724;-82
2022/10/03 04:48:27;;;;;;;20.93;14.90;;;;;;;14.01;100.00;99069.44;4191990;28;20715;-83
2022/10/03 04:50:37;;;;;;;21.50;14.23;;;;;;;13.99;100.00;99066.06;4191778;28;20627;-82
2022/10/03 04:52:42;;;;;;;22.87;15.27;;;;;;;13.97;100.00;99065.31;4193837;28;21259;-83
2022/10/03 04:54:52;;;;;;;23.73;15.00;;;;;;;13.95;100.00;99063.75;4193332;28;20723;-83
2022/10/03 04:57:02;;;;;;;25.13;14.60;;;;;;;13.92;100.00;99070.06;4199900;28;20654;-82
2022/10/03 04:59:12;;;;;;;19.10;14.40;;;;;;;13.89;100.00;99061.53;4170696;28;20633;-83
2022/10/03 05:01:20;;;;;;;22.10;14.77;;;;;;;13.86;100.00;99069.59;4176207;28;21237;-83
2022/10/03 05:03:32;;;;;;;21.90;14.17;;;;;;;13.83;100.00;99062.78;4173570;28;20694;-83
2022/10/03 05:05:48;;;;;;;19.00;13.53;;;;;;;13.79;100.00;99063.09;4196329;28;20637;-83
2022/10/03 05:07:58;;;;;;;19.50;14.23;;;;;;;13.75;100.00;99069.47;4195746;28;20789;-82
2022/10/03 05:10:17;;;;;;;22.17;15.00;;;;;;;13.70;100.00;99064.50;4194367;28;20630;-83
2022/10/03 05:12:28;;;;;;;21.13;14.33;;;;;;;13.64;100.00;99063.25;4199403;28;20652;-84
2022/10/03 05:14:50;;;;;;;22.67;14.70;;;;;;;13.61;100.00;99069.53;4188924;28;20654;-83
2022/10/03 05:16:57;;;;;;;15.30;11.80;;;;;;;13.55;100.00;99063.84;4190674;28;20634;-83
2022/10/03 05:19:10;;;;;;;20.60;13.20;;;;;;;13.54;100.00;99072.63;4178272;28;20633;-83
2022/10/03 05:21:15;;;;;;;18.50;14.03;;;;;;;13.52;100.00;99066.66;4191003;28;20984;-84
2022/10/03 05:23:25;;;;;;;24.23;15.00;;;;;;;13.50;100.00;99068.53;4190642;28;21297;-83
2022/10/03 05:25:35;;;;;;;22.77;14.67;;;;;;;13.50;100.00;99071.13;4195078;28;20726;-83
2022/10/03 05:27:44;;;;;;;22.90;15.20;;;;;;;13.50;100.00;99068.53;4190574;28;20659;-83
2022/10/03 05:29:52;;;;;;;27.23;15.03;;;;;;;13.50;100.00;99081.63;4184748;28;21318;-84
2022/10/03 05:32:06;;;;;;;23.50;15.63;;;;;;;13.49;100.00;99078.16;4194792;28;20635;-83
2022/10/03 05:34:20;;;;;;;21.60;14.60;;;;;;;13.48;100.00;99080.88;4191219;28;20643;-83
2022/10/03 05:36:33;;;;;;;21.17;14.70;;;;;;;13.44;100.00;99080.25;4190635;28;20621;-84
2022/10/03 05:39:19;;;;;;;18.70;14.00;;;;;;;13.40;100.00;99075.31;4196013;28;20642;-83
2022/10/03 05:41:25;;;;;;;21.97;14.23;;;;;;;13.38;100.00;99078.03;4177282;28;21039;-83
2022/10/03 05:43:37;;;;;;;20.43;14.07;;;;;;;13.37;100.00;99083.38;4177400;28;20667;-84
2022/10/03 05:45:48;;;;;;;44.23;14.73;;;;;;;13.35;100.00;99087.84;4196881;28;20681;-83
2022/10/03 05:47:54;;;;;;;127.23;20.27;;;;;;;13.35;100.00;99087.84;4191469;28;20697;-83
2022/10/03 05:50:48;;;;;;;127.80;20.10;;;;;;;13.32;100.00;99099.38;4193208;28;20628;-83
2022/10/03 05:53:07;;;;;;;69.87;17.50;;;;;;;13.29;100.00;99103.94;4125551;28;20761;-83
2022/10/03 05:55:20;;;;;;;68.50;17.20;;;;;;;13.28;100.00;99102.28;4180552;28;20916;-84
2022/10/03 05:57:43;;;;;;;57.37;17.20;;;;;;;13.28;100.00;99107.53;4189494;28;20628;-83
2022/10/03 06:00:06;;;;;;;50.90;14.47;;;;;;;13.26;100.00;99112.84;4176133;28;20623;-83
2022/10/03 06:02:45;;;;;;;34.80;13.97;;;;;;;13.19;100.00;99114.16;4173215;28;20629;-83
2022/10/03 06:05:07;;;;;;;56.00;15.50;;;;;;;13.15;100.00;99119.69;4192848;28;20658;-84
2022/10/03 06:07:19;;;;;;;69.07;14.53;;;;;;;13.15;100.00;99131.97;4190474;28;20632;-83
2022/10/03 06:09:37;;;;;;;96.57;14.37;;;;;;;13.13;100.00;99134.66;4185698;28;21298;-83
2022/10/03 06:11:54;;;;;;;65.33;13.50;;;;;;;13.14;100.00;99132.88;4190510;28;21257;-83
2022/10/03 06:14:16;;;;;;;85.80;13.63;;;;;;;13.14;100.00;99141.59;4192290;28;20729;-83
2022/10/03 06:16:29;;;;;;;49.17;12.77;;;;;;;13.15;100.00;99140.66;4188440;28;20630;-84
2022/10/03 06:18:54;;;;;;;29.60;11.50;;;;;;;13.19;100.00;99145.59;4193331;28;20655;-83
2022/10/03 06:21:12;;;;;;;42.90;12.90;;;;;;;13.23;100.00;99141.03;4207025;28;20635;-83
2022/10/03 06:23:32;;;;;;;40.27;13.07;;;;;;;13.28;100.00;99144.22;4192611;28;20630;-84
2022/10/03 06:26:17;;;;;;;38.00;11.50;;;;;;;13.32;100.00;99150.91;4190505;28;20661;-83
2022/10/03 06:28:41;;;;;;;23.67;12.13;;;;;;;13.41;100.00;99147.72;4183666;28;20620;-83
2022/10/03 06:31:10;;;;;;;41.57;12.87;;;;;;;13.48;100.00;99146.41;4187828;28;20636;-83
2022/10/03 06:33:56;;;;;;;37.40;12.87;;;;;;;13.50;100.00;99149.78;4196146;28;20651;-83
2022/10/03 06:36:33;;;;;;;23.20;11.23;;;;;;;13.54;100.00;99153.88;4186339;28;20639;-84
2022/10/03 06:39:20;;;;;;;26.53;11.97;;;;;;;13.56;100.00;99162.50;4163581;28;20654;-83
2022/10/03 06:41:46;;;;;;;18.37;11.43;;;;;;;13.56;100.00;99172.97;4173778;28;20641;-83
2022/10/03 06:44:04;;;;;;;16.07;11.93;;;;;;;13.59;100.00;99165.78;4189704;28;20660;-83
2022/10/03 06:46:38;;;;;;;19.80;13.47;;;;;;;13.61;100.00;99166.50;4197773;28;21022;-84
2022/10/03 06:49:12;;;;;;;22.23;12.33;;;;;;;13.64;100.00;99162.88;4188441;28;20640;-83
2022/10/03 06:51:31;;;;;;;19.90;13.60;;;;;;;13.66;100.00;99178.38;4190822;28;20636;-84
2022/10/03 06:53:59;;;;;;;18.07;12.60;;;;;;;13.67;100.00;99168.75;4186113;28;20615;-83
2022/10/03 06:56:25;;;;;;;35.47;29.63;;;;;;;13.67;100.00;99181.84;4184550;28;20636;-83
2022/10/03 06:59:06;;;;;;;19.90;17.80;;;;;;;13.67;100.00;99177.44;4191262;28;20636;-84
2022/10/03 07:02:09;;;;;;;17.20;12.97;;;;;;;13.70;100.00;99179.03;4156715;28;20690;-83
2022/10/03 07:04:30;;;;;;;17.70;12.30;;;;;;;13.73;100.00;99184.94;4068101;28;20700;-84
2022/10/03 07:06:42;;;;;;;18.60;13.70;;;;;;;13.75;100.00;99182.22;4113119;28;20694;-83
2022/10/03 07:09:27;;;;;;;14.63;11.70;;;;;;;13.78;100.00;99189.88;4139664;28;21018;-82
2022/10/03 07:11:42;;;;;;;17.43;13.63;;;;;;;13.76;100.00;99187.34;4191820;28;20653;-83
2022/10/03 07:14:07;;;;;;;15.73;12.10;;;;;;;13.78;100.00;99188.09;4188687;28;20718;-84
2022/10/03 07:16:50;;;;;;;16.27;14.57;;;;;;;13.82;100.00;99192.22;4205847;28;20658;-84
2022/10/03 07:19:18;;;;;;;16.53;12.80;;;;;;;13.88;100.00;99186.56;4191770;28;20639;-84
2022/10/03 07:21:33;;;;;;;20.17;13.40;;;;;;;13.93;100.00;99192.34;4188084;28;20632;-83
2022/10/03 07:24:15;;;;;;;18.10;13.10;;;;;;;13.99;100.00;99191.97;4183623;28;20616;-84
2022/10/03 07:26:54;;;;;;;20.33;12.73;;;;;;;14.04;100.00;99199.53;4187538;28;20633;-84
2022/10/03 07:29:08;;;;;;;16.03;12.10;;;;;;;14.03;100.00;99198.72;4188953;28;20632;-84
2022/10/03 07:31:16;;;;;;;18.97;12.67;;;;;;;14.01;100.00;99194.50;4189081;28;20744;-85
2022/10/03 07:33:37;;;;;;;16.33;10.20;;;;;;;13.97;99.54;99204.34;4180697;28;20647;-87
2022/10/03 07:40:56;;;;;;;16.90;10.77;;;;;;;13.99;98.42;99209.50;4214059;27;20786;-86
2022/10/03 07:43:24;;;;;;;15.80;9.47;;;;;;;14.03;98.40;99209.19;4170627;28;20658;-84
2022/10/03 07:45:35;;;;;;;12.33;8.80;;;;;;;14.07;98.85;99204.63;4180756;28;20997;-84
2022/10/03 07:48:27;;;;;;;12.67;8.47;;;;;;;14.14;99.00;99217.25;4187616;28;20690;-86
2022/10/03 07:50:56;;;;;;;14.70;9.20;;;;;;;14.20;98.87;99216.84;4187163;28;20638;-85
2022/10/03 07:53:11;;;;;;;10.80;7.67;;;;;;;14.22;97.39;99217.59;4179701;28;20685;-85
2022/10/03 07:55:27;;;;;;;11.17;8.40;;;;;;;14.27;98.02;99231.28;4178986;28;20663;-86
2022/10/03 07:57:54;;;;;;;17.40;10.10;;;;;;;14.34;98.82;99225.53;4186639;28;20625;-86
2022/10/03 08:00:11;;;;;;;14.13;11.17;;;;;;;14.42;97.60;99222.41;4183932;28;20791;-87
2022/10/03 08:02:32;;;;;;;17.87;13.20;;;;;;;14.48;99.12;99229.84;4183508;28;21206;-86
2022/10/03 08:05:05;;;;;;;14.57;9.47;;;;;;;14.52;96.72;99229.53;4201161;28;20625;-85
2022/10/03 08:07:22;;;;;;;13.47;9.47;;;;;;;14.57;97.74;99221.38;4168890;28;20617;-86
2022/10/03 08:09:49;;;;;;;14.70;9.27;;;;;;;14.63;95.92;99227.91;4170852;28;20636;-85
2022/10/03 08:12:31;;;;;;;11.23;8.40;;;;;;;14.68;95.60;99236.31;4184720;28;20661;-86
2022/10/03 08:14:46;;;;;;;13.30;9.20;;;;;;;14.72;95.40;99236.97;4187461;28;20637;-85
2022/10/03 08:17:30;;;;;;;13.63;9.03;;;;;;;14.74;95.23;99228.03;4198034;28;20609;-85
2022/10/03 08:19:50;;;;;;;13.53;8.73;;;;;;;14.79;97.21;99225.97;4184887;28;20669;-86
2022/10/03 08:22:01;;;;;;;12.23;9.63;;;;;;;14.76;95.30;99236.66;4173126;28;20661;-86
2022/10/03 08:24:12;;;;;;;14.30;10.90;;;;;;;14.78;96.00;99232.16;4179266;28;20682;-86
2022/10/03 08:26:19;;;;;;;11.03;8.93;;;;;;;14.82;95.72;99233.59;4189958;28;20635;-86
2022/10/03 08:28:34;;;;;;;13.93;10.60;;;;;;;14.83;95.97;99230.03;4168351;28;21168;-86
2022/10/03 08:30:51;;;;;;;14.77;11.10;;;;;;;14.89;97.31;99234.06;4189929;28;20624;-86
2022/10/03 08:33:15;;;;;;;17.90;10.23;;;;;;;14.91;95.88;99229.53;4172848;28;20620;-86
2022/10/03 08:35:37;;;;;;;18.27;11.30;;;;;;;15.02;97.81;99243.63;4166137;28;20645;-86
2022/10/03 08:38:08;;;;;;;17.40;11.00;;;;;;;15.09;97.18;99237.00;4168722;28;21067;-85
2022/10/03 08:40:45;;;;;;;14.00;10.73;;;;;;;15.17;95.96;99240.00;4177947;28;20709;-85
2022/10/03 08:43:28;;;;;;;23.40;11.77;;;;;;;15.14;96.68;99234.91;4184767;28;20633;-86
2022/10/03 08:45:50;;;;;;;20.20;11.30;;;;;;;15.16;97.87;99228.59;4116148;28;20743;-86
2022/10/03 08:48:32;;;;;;;17.87;10.57;;;;;;;15.23;98.88;99229.91;4174580;28;20998;-85
2022/10/03 08:51:04;;;;;;;15.83;10.60;;;;;;;15.21;96.81;99225.69;4169860;28;21219;-85
2022/10/03 08:53:36;;;;;;;15.43;9.97;;;;;;;15.19;96.05;99232.84;4172944;28;20672;-86
2022/10/03 08:55:48;;;;;;;17.23;10.17;;;;;;;15.15;95.60;99229.56;4160290;28;20643;-85
2022/10/03 08:58:29;;;;;;;15.90;10.90;;;;;;;15.11;94.81;99230.69;4174686;28;20643;-85
2022/10/03 09:00:46;;;;;;;17.93;9.77;;;;;;;15.19;94.89;99243.34;4157189;28;21208;-86
2022/10/03 09:03:27;;;;;;;15.73;10.17;;;;;;;15.29;95.22;99241.75;4169071;28;22137;-85
2022/10/03 09:06:08;;;;;;;16.50;8.90;;;;;;;15.43;94.28;99233.78;4172386;28;21200;-85
2022/10/03 09:08:37;;;;;;;12.47;8.67;;;;;;;15.51;92.13;99239.34;4154803;28;20638;-86
2022/10/03 09:11:06;;;;;;;12.70;8.90;;;;;;;15.55;93.26;99226.69;4162369;28;20620;-86
2022/10/03 09:13:47;;;;;;;14.67;9.43;;;;;;;15.60;93.10;99229.84;4118594;28;20662;-85
2022/10/03 09:16:38;;;;;;;13.53;8.80;;;;;;;15.48;94.27;99232.50;4159299;28;21256;-85
2022/10/03 09:18:50;;;;;;;14.53;8.00;;;;;;;15.43;94.63;99226.72;4170737;28;21011;-86
2022/10/03 09:21:34;;;;;;;14.00;8.20;;;;;;;15.30;93.40;99225.06;4170708;28;20658;-86
2022/10/03 09:23:56;;;;;;;11.20;7.63;;;;;;;15.24;94.71;99230.72;4154125;28;20631;-86
2022/10/03 09:26:17;;;;;;;12.87;7.60;;;;;;;15.20;93.40;99224.84;4157505;28;20769;-86
2022/10/03 09:28:48;;;;;;;13.30;6.67;;;;;;;15.19;91.77;99231.03;4151752;28;20639;-86
2022/10/03 09:30:55;;;;;;;10.10;6.60;;;;;;;15.21;91.97;99225.69;4166284;28;20696;-85
2022/10/03 09:33:27;;;;;;;14.50;6.90;;;;;;;15.23;90.45;99224.63;4163178;28;21218;-87
2022/10/03 09:35:45;;;;;;;13.70;6.77;;;;;;;15.23;91.54;99227.28;4157944;28;20638;-86
2022/10/03 09:38:02;;;;;;;11.50;7.23;;;;;;;15.23;93.16;99229.03;4158961;28;20630;-86
2022/10/03 09:40:25;;;;;;;13.40;7.10;;;;;;;15.22;92.30;99227.38;4167358;28;21095;-86
2022/10/03 09:42:58;;;;;;;13.80;7.50;;;;;;;15.19;91.48;99222.31;4171442;28;20734;-86
2022/10/03 09:45:13;;;;;;;14.53;7.57;;;;;;;15.25;91.66;99222.75;4172134;28;20705;-85
2022/10/03 09:47:50;;;;;;;11.30;7.10;;;;;;;15.52;94.37;99210.31;4189468;28;20675;-86
2022/10/03 09:50:26;;;;;;;14.93;7.37;;;;;;;16.01;92.50;99227.75;4173236;28;20714;-85
2022/10/03 09:52:41;;;;;;;12.33;7.13;;;;;;;16.38;89.50;99229.44;4152666;28;20734;-85
2022/10/03 09:55:02;;;;;;;13.03;7.73;;;;;;;16.51;88.92;99231.88;4170937;28;21201;-86
2022/10/03 09:57:37;;;;;;;10.17;6.17;;;;;;;16.65;87.86;99228.22;4173559;28;20637;-85
2022/10/03 09:59:52;;;;;;;15.47;6.67;;;;;;;16.66;86.93;99235.19;4160375;28;20673;-85
2022/10/03 10:02:07;;;;;;;14.20;7.10;;;;;;;16.57;87.69;99227.97;4172386;28;20637;-85
2022/10/03 10:04:38;;;;;;;10.50;6.50;;;;;;;16.48;87.92;99228.66;4166873;28;21204;-85
2022/10/03 10:07:32;;;;;;;12.97;6.67;;;;;;;16.30;87.47;99230.00;4171690;28;20679;-86
2022/10/03 10:09:53;;;;;;;16.30;7.30;;;;;;;16.21;87.68;99222.72;4138707;28;20682;-84
2022/10/03 10:12:22;;;;;;;12.90;7.03;;;;;;;16.15;86.62;99228.44;4158040;28;20686;-86
2022/10/03 10:14:43;;;;;;;12.63;6.40;;;;;;;16.07;87.62;99222.91;4163139;28;20621;-85
2022/10/03 10:17:03;;;;;;;11.17;7.10;;;;;;;16.00;86.87;99228.72;4170260;28;20647;-86
2022/10/03 10:19:29;;;;;;;10.60;7.60;;;;;;;15.94;87.32;99226.53;4172618;28;20654;-86
2022/10/03 10:21:46;;;;;;;15.93;8.07;;;;;;;15.79;89.01;99224.97;4146615;28;20714;-85
2022/10/03 10:23:59;;;;;;;14.27;7.70;;;;;;;15.79;89.50;99224.16;4165119;28;20639;-85
2022/10/03 10:26:48;;;;;;;14.13;8.83;;;;;;;15.77;88.48;99219.00;4154431;28;21204;-84
2022/10/03 10:29:36;;;;;;;28.90;9.30;;;;;;;15.79;90.15;99224.97;4153978;28;20640;-84
2022/10/03 10:32:25;;;;;;;10.03;7.00;;;;;;;15.76;88.95;99227.81;4120556;28;21249;-85
2022/10/03 10:35:06;;;;;;;11.03;7.70;;;;;;;15.87;88.76;99230.53;4173480;28;20623;-85
2022/10/03 10:37:47;;;;;;;10.53;7.30;;;;;;;16.11;84.16;99234.88;4156095;28;20638;-84
2022/10/03 10:40:21;;;;;;;11.47;6.80;;;;;;;16.41;85.46;99239.75;4169221;28;20643;-85
2022/10/03 10:43:00;;;;;;;12.50;6.80;;;;;;;16.69;84.77;99235.78;4169958;28;20664;-85
2022/10/03 10:45:39;;;;;;;11.57;6.13;;;;;;;16.97;84.41;99238.03;4173922;28;20631;-85
2022/10/03 10:48:26;;;;;;;8.33;5.17;;;;;;;16.93;83.15;99244.50;4146063;28;21234;-85
2022/10/03 10:50:56;;;;;;;7.33;5.13;;;;;;;16.86;81.96;99235.38;4180016;28;20702;-85
2022/10/03 10:53:38;;;;;;;7.50;5.27;;;;;;;16.96;82.04;99232.88;4162432;28;20698;-84
2022/10/03 10:56:22;;;;;;;10.57;5.50;;;;;;;17.17;80.76;99235.56;4154527;28;20657;-85
2022/10/03 10:59:07;;;;;;;10.87;5.87;;;;;;;16.99;76.96;99231.69;4140297;28;20641;-84